events-overview

Kinetic Sprint

 

Overall Men

Lake Anna State Park - Spotsylvania, VA 5/09/2010 10:00AM

** Results are for the private use of participants and are the Intellectual Property of Set Up Events. Unauthorized use of these results is prohibited.

Place Bib NAME CITY/STATE Rank SWIM Rank T1 Rank BIKE Rank T2 Rank RUN PENALTY TIME DQ
1507Ryan PetersonRichmond VA300:10:312000:01:38300:44:515300:00:40100:17:46 01:15:25 
2130Brian DavisRockville MD100:09:502900:01:43500:45:445500:00:40500:19:17 01:17:13 
3144Eric DempsterWinchester VA1600:11:526900:02:05100:44:025800:00:41300:18:38 01:17:17 
4480Dan OconnellReston VA200:10:12200:01:22600:45:475400:00:40800:19:38 01:17:37 
5226David GloverTowson MD1000:11:442200:01:39400:45:251900:00:28600:19:23 01:18:38 
6419Tony MarutPainesville OH2400:12:421600:01:35800:46:325100:00:40700:19:37 01:21:04 
7664Adam WilliamsStephens City VA2800:12:453600:01:47700:46:14800:00:231100:20:15 01:21:23 
8423Jared MauldinSuffolk VA700:11:06500:01:262800:49:113600:00:341000:20:12 01:22:28 
9106Michael CoffmanAlexandria VA15300:15:40900:01:30200:44:292400:00:301600:20:28 01:22:35 
10615Damon TaaffeArlington VA2900:12:472700:01:421000:46:542000:00:292700:21:07 01:22:56 
11231Brian GoebelVienna VA4100:13:087100:02:06900:46:494300:00:362300:20:59 01:23:35 
12561Douglas SedivyNew Albany OH4200:13:082600:01:411400:47:244000:00:354800:21:52 01:24:38 
13135Alvaro De La CuevaArlington VA3100:12:51700:01:291900:48:03100:00:185500:22:05 01:24:45 
14670Chad WolfAlexandria VA5100:13:211400:01:342500:48:591300:00:252100:20:57 01:25:14 
15459Dylan MorganFairfax Station VA1700:11:533000:01:438400:53:23200:00:18200:18:17 01:25:32 
16456Eric MooreCharlottesville VA7100:14:0011400:02:261500:47:317100:00:452500:21:01 01:25:40 
17418Bill MarutPainesville OH4900:13:182300:01:401700:47:507500:00:465700:22:09 01:25:42 
18434Matt McLaughlinWashington DC6600:13:486300:02:032100:48:1310500:00:551900:20:51 01:25:47 
19300Andrew HowardPoolesville MD5600:13:28400:01:223000:49:161800:00:283800:21:32 01:26:04 
20530Troy ReischAdamstown MD4800:13:181000:01:322900:49:123500:00:344500:21:42 01:26:15 
21447Greg MillerSuffolk VA10000:14:36100:01:191100:47:14500:00:217100:22:50 01:26:18 
22159Alan DixonWashington DC5300:13:267500:02:081300:47:171700:00:278100:23:03 01:26:20 
23219Richard GendronDunn Loring VA3200:12:561900:01:371800:47:5112200:00:599000:23:35 01:26:56 
2465Justin BransonWashington DC19300:16:402100:01:381600:47:496800:00:44900:20:07 01:26:56 
25442Nicholas MeyerElkridge MD800:11:185400:01:593400:49:567600:00:468300:23:06 01:27:02 
26608Thomas StroupGreat Falls VA5800:13:321800:01:372300:48:291400:00:268600:23:10 01:27:11 
2748Philip BergmanWashington DC6100:13:408000:02:102200:48:196900:00:447600:23:00 01:27:52 
28437Brennan McReynoldsChevy Chase MD11600:14:578300:02:122400:48:399800:00:523000:21:20 01:27:57 
29283Noah HerbertArlington VA2600:12:431100:01:326300:52:144600:00:382600:21:03 01:28:09 
30100E Kevin ClarkFrederick MD15200:15:405200:01:571200:47:1721900:01:404200:21:38 01:28:10 
PlaceBibNAMECITY/STATERankSWIMRankT1RankBIKERankT2RankRUNPENALTYTIMEDQ
31428Michael McConnellArlington VA5900:13:3611000:02:243300:49:5110800:00:563400:21:27 01:28:12 
32617Jason TaylorWashington DC11200:14:5213500:02:363900:50:3614900:01:08400:19:04 01:28:14 
33102Kyle ClarkWashington DC600:10:519200:02:175300:51:328800:00:498200:23:05 01:28:33 
34487Hunter Oliver-AllenBethesda MD5400:13:269400:02:183500:50:056100:00:425600:22:05 01:28:34 
35402James LutkusArlington VA500:10:386100:02:005100:51:268700:00:489200:23:44 01:28:35 
36473Bart NelsonRichmond VA1400:11:478600:02:135800:51:578200:00:476000:22:13 01:28:56 
37421Jack MasihOakton VA15900:15:454200:01:512000:48:093900:00:347000:22:44 01:29:01 
38235Brett GombarBlacksburg VA1200:11:463400:01:466400:52:182800:00:318500:23:09 01:29:28 
3977Ralph ButlerChesapeake VA8300:14:144700:01:554100:50:395900:00:425200:22:01 01:29:29 
40179Andrew EvansWashington DC3400:12:5923600:03:345400:51:3413700:01:041200:20:19 01:29:29 
41278Michael HawmanRockville MD5500:13:273200:01:445600:51:443000:00:326500:22:36 01:30:02 
42243Benjamin GreenWashington DC2200:12:2910900:02:246100:52:101100:00:247700:23:01 01:30:26 
43316Kip JawishFrederick MD3800:13:013500:01:473800:50:29600:00:2213900:25:04 01:30:42 
44266H. Rami HamrouniSpotsylvania VA9500:14:308100:02:117300:52:4510000:00:531700:20:30 01:30:46 
45401Erik LundgrenWashington DC18700:16:3012000:02:294300:50:4114700:01:071500:20:27 01:31:13 
46334Augie KahsarRichmond VA4400:13:135000:01:567100:52:429400:00:516900:22:44 01:31:24 
4762Kevin BoyleAshburn VA6500:13:469900:02:196600:52:284800:00:396300:22:16 01:31:27 
48396Richard LockleyWashington DC18600:16:3012600:02:333100:49:2712500:01:015300:22:02 01:31:30 
4963Steve BradleyPurcellville VA7800:14:101700:01:366800:52:344200:00:366700:22:41 01:31:35 
50490Robert OsterriedSterling VA23000:17:382800:01:434400:50:532300:00:292200:20:57 01:31:39 
51269Jim HanleyLeonardtown MD8800:14:199000:02:154600:51:0117700:01:197900:23:02 01:31:53 
5275Rob BurnettHanover MD23600:17:5216700:02:503200:49:492700:00:312000:20:55 01:31:54 
53602Damon SteeleClarksburg MD1500:11:503800:01:484000:50:3811200:00:5718600:26:42 01:31:54 
5461Martin BowlingFort Belvoir VA17500:16:108400:02:122600:49:084500:00:379500:23:49 01:31:54 
55409Kevin MallonAnnandale VA1900:12:039700:02:1811800:55:136600:00:434400:21:40 01:31:56 
56436Zak McNamaraAlexandria VA14200:15:2820900:03:162700:49:0916000:01:127400:22:57 01:32:00 
5784Stephen CarlsonArlington VA7000:14:001500:01:356000:52:103700:00:3410200:24:04 01:32:20 
58136David DealWashington DC10900:14:497400:02:083700:50:258600:00:4811000:24:15 01:32:22 
59485Brenan OliverArlington VA12400:15:06800:01:299400:54:142500:00:303700:21:28 01:32:46 
60387Monte LewisMontgomery Village MD8000:14:1110500:02:228100:53:2014400:01:064700:21:51 01:32:47 
61479Vaughan O'BrienWashington DC1300:11:474300:01:5117700:57:584100:00:351800:20:38 01:32:48 
PlaceBibNAMECITY/STATERankSWIMRankT1RankBIKERankT2RankRUNPENALTYTIMEDQ
62122David CrumFairfax VA1800:11:58300:01:2212100:55:14400:00:2010300:24:04 01:32:57 
6399Steven ClaremonWashington DC19800:16:468900:02:144800:51:0920300:01:303100:21:20 01:32:58 
64208Brian FreitagCulpeper VA900:11:2914700:02:3915900:57:07900:00:233200:21:22 01:32:58 
65454Patrick MohlWoodbine MD11800:14:587900:02:107900:53:1314800:01:083900:21:36 01:33:02 
66143Marc DeleonibusDavidsonville MD10700:14:4813000:02:348200:53:2011700:00:583500:21:27 01:33:05 
67177John ErbAlexandria VA1100:11:464600:01:545200:51:3111800:00:5819500:27:00 01:33:08 
68218Patrick GaySpotsylvania VA3700:13:0131700:57:29       01:33:10 
69478Michael ObersheimerElma NY9200:14:266000:02:007000:52:41700:00:239300:23:47 01:33:15 
70369Jonas LaranceRichmond VA13400:15:229300:02:174200:50:419200:00:5010600:24:08 01:33:17 
71394Michael LivingstonQuantico VA9300:14:265800:02:008600:53:306300:00:426800:22:43 01:33:20 
72404John LysherFredericksburg VA3000:12:5115300:02:427700:53:0910700:00:569700:23:53 01:33:28 
7310Daniel AndersonRockville MD9000:14:244900:01:559200:54:0018000:01:195800:22:11 01:33:47 
74151Barry DiciccoOakton VA8100:14:118500:02:135500:51:3910100:00:5414400:25:08 01:34:02 
7531Dennis BarrRidge MD12500:15:073900:01:504700:51:06     01:34:08 
76687David ZemoCulpeper VA6200:13:468200:02:125700:51:486200:00:4216500:25:48 01:34:13 
77477Mark OakesHighland MD7300:14:0511300:02:255900:52:012600:00:3015200:25:17 01:34:16 
78609Micah SubarPotomac MD18300:16:245500:01:599600:54:224900:00:392400:21:00 01:34:22 
79511Sean PorseWashington DC11300:14:543300:01:4512300:55:216000:00:424600:21:42 01:34:22 
80398Rick LuchinskyOwings Mills MD13600:15:2317700:02:577200:52:4415300:01:106100:22:14 01:34:26 
8180David Callaway JrStafford VA8400:14:156700:02:0510300:54:354400:00:378000:23:02 01:34:32 
82145Michael DensleyArlington VA20300:16:507300:02:077800:53:1312800:01:013600:21:28 01:34:37 
83249Bill GroeningerNorfolk VA23800:17:5812300:02:323600:50:248000:00:477800:23:01 01:34:40 
84285Simon HernaezFalls Church VA4000:13:056400:02:036500:52:218500:00:4718000:26:26 01:34:40 
85125Lars DahlStafford VA7600:14:0811700:02:279000:53:51     01:34:48 
8625Kevin BaldwinReston VA15600:15:431200:01:3310800:54:444700:00:395900:22:13 01:34:50 
87432Derek McKeeWashington DC18100:16:207000:02:069800:54:257200:00:452900:21:16 01:34:50 
88449Jorge MineraWarrenton VA9700:14:305300:01:587500:52:5912000:00:5911900:24:28 01:34:53 
8967Ryan BressonAnnapolis MD14300:15:2926200:04:0410200:54:343200:00:331300:20:20 01:34:58 
90242Steven Storman GormanStafford VA12200:15:042500:01:416700:52:305200:00:4014600:25:09 01:35:02 
91474Shaun NicholsChester VA      7000:00:4512200:24:32 01:35:06 
92224Keith GilbreathColumbia MD13500:15:239800:02:1810500:54:3916900:01:144000:21:37 01:35:09 
PlaceBibNAMECITY/STATERankSWIMRankT1RankBIKERankT2RankRUNPENALTYTIMEDQ
93360Darren KorverMidlothian VA10300:14:468800:02:1410100:54:3214200:01:056600:22:36 01:35:11 
94590Mosi SmithAnnapolis MD21000:17:091300:01:3311700:55:0911500:00:581400:20:26 01:35:13 
95163Graeme DouglasWashington DC18800:16:324100:01:509100:53:557300:00:456200:22:14 01:35:15 
9659Robert BosleyVirginia Beach VA8900:14:224400:01:518900:53:50     01:35:32 
97586Scott SmallwoodArlington VA14500:15:3115400:02:4310000:54:3012900:01:014900:21:54 01:35:37 
9820Matt AveryArlington VA2000:12:2214000:02:3614200:56:316700:00:438800:23:26 01:35:38 
99632Greg TuckMechanicsville VA17400:16:0514900:02:419300:54:1217500:01:175100:22:00 01:36:13 
100126Andrew DalyWashington DC6700:13:5217200:02:5512200:55:1918800:01:227300:22:56 01:36:22 
101522Keith PrusekRichmond VA14400:15:302400:01:408000:53:179300:00:5114500:25:09 01:36:25 
102515Tim PoteStafford VA5000:13:206500:02:0313500:56:017900:00:4712000:24:30 01:36:39 
103332Oliver JosephsChevy Chase MD16200:15:487600:02:0814400:56:347400:00:463300:21:26 01:36:39 
104465Brian MumawSandy Hook VA20200:16:4812700:02:338300:53:207700:00:468700:23:21 01:36:47 
105607Philip StewartPittsburgh CA18000:16:1919800:03:0711200:54:5210400:00:554100:21:38 01:36:49 
106281Mark HeedeGlen Allen VA6000:13:395600:02:0011000:54:4922400:01:4314100:25:05 01:37:15 
107464Daniel MulhernIjamsville MD5200:13:245100:01:5616600:57:232100:00:2910800:24:12 01:37:23 
108343William KennedyFairfax VA6800:13:5617800:02:579900:54:2817400:01:1613000:24:49 01:37:24 
109618Lee TaylorWashington DC14800:15:3315500:02:4312000:55:1413600:01:047200:22:54 01:37:26 
110458Juan MorenoArlington VA14600:15:3114400:02:388700:53:3123000:01:4810100:24:04 01:37:30 
111666Mark WilliamsHerndon VA12600:15:0712800:02:338800:53:3916800:01:1413800:25:03 01:37:34 
112640Eric VoborilBaltimore MD11500:14:5610700:02:2216000:57:0921800:01:394300:21:39 01:37:44 
113286Justin HerringWashington DC2100:12:2910800:02:2318400:58:1216100:01:129100:23:43 01:37:57 
114217Bill GaryAshland VA10100:14:3816400:02:487400:52:5815800:01:1119100:26:45 01:38:18 
11545Leonard BechtelArlington VA12300:15:057200:02:0613900:56:1816300:01:129400:23:49 01:38:29 
116202Robert FoxTakoma Park MD12800:15:1024200:03:4013000:55:4015600:01:107500:22:58 01:38:37 
117674John WorkmanWashington DC25300:18:436600:02:046900:52:381500:00:2713100:24:49 01:38:39 
11879Matt CainArlington VA2300:12:4111200:02:2517900:58:0112300:01:0012300:24:35 01:38:41 
119560Matthew SchwabelBarboursville VA25100:18:4018500:03:00       01:38:46 
120160Dave DixonLouisa VA10400:14:46      12100:24:31 01:38:49 
121655Brad WeilWashington DC20600:16:5620500:03:148500:53:2916400:01:1211200:24:16 01:39:06 
122413Peter ManternachBristow VA12000:15:0023200:03:3112400:55:2318400:01:209800:23:57 01:39:09 
123652Daniel Langford 2700:12:445900:02:0023701:01:2712400:01:005000:22:00 01:39:09 
PlaceBibNAMECITY/STATERankSWIMRankT1RankBIKERankT2RankRUNPENALTYTIMEDQ
124470Al NavidiRockville MD28700:20:338700:02:134900:51:1410300:00:5411600:24:19 01:39:12 
125668Kurt WinterCollege Park MD6300:13:4624000:03:3621400:59:469700:00:522800:21:15 01:39:13 
126154Douglas DillonRound Hill VA8600:14:174800:01:5514000:56:239100:00:5016600:25:50 01:39:13 
127212Rick FritzRockville MD12900:15:113100:01:4414800:56:3718600:01:2211800:24:22 01:39:14 
128516Chuck PotterGermantown MD13000:15:169600:02:1810600:54:405700:00:4117900:26:24 01:39:17 
129503Joel PearsonManassas Park VA15400:15:40600:01:2612900:55:373400:00:3417600:26:16 01:39:31 
130293John HodgesBristow VA6900:13:5823800:03:3514300:56:3217200:01:1611500:24:19 01:39:38 
131639Jeff Van SchaickGermantown MD16700:15:553700:01:4716900:57:256500:00:439900:23:59 01:39:48 
132184Chris FarajiArlington VA3900:13:0519600:03:0512800:55:3615000:01:0919600:27:03 01:39:56 
133520David PriceArlington VA4500:13:1423700:03:3515700:57:0117000:01:1513500:24:56 01:39:58 
134195Adrian FloresAshburn VA16000:15:454500:01:5415100:56:42     01:40:01 
135626Guy TomberlinBluemont VA17300:16:0120800:03:1514700:56:371200:00:249600:23:50 01:40:06 
136169Stone DysonHenrico VA13800:15:2513200:02:3517200:57:35300:00:1911400:24:19 01:40:11 
137124Julien CuvillierGaithersburg MD13100:15:1817100:02:5511100:54:513300:00:3318100:26:36 01:40:11 
138526Rj RedstromPowhatan VA15800:15:4413900:02:3611900:55:1410600:00:5516400:25:46 01:40:14 
139531Bryan RhodeCrozier VA7700:14:0927800:04:2917100:57:28     01:40:16 
14057Stephen BoadaAlexandria VA22100:17:2223500:03:3411400:55:0226400:02:235400:22:05 01:40:24 
14138Justin BauerArlington VA24900:18:3314800:02:407600:53:0121700:01:3912400:24:36 01:40:27 
142628Michael TranquillRockville MD17900:16:1318600:03:009500:54:2214000:01:0516900:26:00 01:40:38 
143128Behzad DastaniBaltimore MD           01:40:39 
144542Matthew RohringSpotsylvania VA17000:15:5615800:02:4512600:55:286400:00:4216800:25:52 01:40:42 
145320Bruce JenkinsMcKeesport PA17200:16:0011800:02:2810700:54:4213100:01:0213200:24:5000:02:0001:40:59 
146167Tim DuffeyArlington VA21800:17:1718800:03:0113200:55:4511600:00:5810000:24:02 01:41:01 
147311Thomas ImpellitteriAlexandria VA23300:17:4512500:02:3310900:54:4711300:00:5813700:25:01 01:41:02 
148301Sean HoweVienna VA10800:14:4818000:02:5816200:57:1117600:01:1713300:24:52 01:41:04 
149554Jeff ScarrittFairfax VA13300:15:2114600:02:3917800:58:0014500:01:0611100:24:15 01:41:19 
150103Brett CoffeeBurke VA24700:18:2513300:02:354500:50:5614600:01:0722400:28:26 01:41:27 
151591Tim SmithWoodbridge VA16100:15:4612400:02:3320400:59:14     01:41:28 
15268Mike BrownBrambleton VA23700:17:5420400:03:1117000:57:261600:00:276400:22:34 01:41:30 
153112Anthony ConsoldaneAlexandria VA4300:13:0817500:02:5722701:00:45     01:41:57 
154232David GogolkiewiczManassas VA10200:14:4418300:03:0016100:57:1018200:01:2016300:25:46 01:41:58 
PlaceBibNAMECITY/STATERankSWIMRankT1RankBIKERankT2RankRUNPENALTYTIMEDQ
155549Luke SackettWaynesboro VA17600:16:125700:02:0018200:58:042900:00:3215000:25:13 01:41:59 
156147Paul DeutschFalls Church VA25800:18:5916100:02:4715200:56:44     01:42:07 
157295Ryan HoffmanReston VA18400:16:2522100:03:2515500:56:5815400:01:1010900:24:15 01:42:10 
158317Jason JaworskiFredericksburg VA29900:22:239500:02:185000:51:1922200:01:4212500:24:36 01:42:16 
159323Brian JohnsonAlexandria VA16800:15:5510400:02:2119600:58:552200:00:2912800:24:45 01:42:24 
160681Curtis YeeWashington DC18200:16:2111600:02:2716700:57:249900:00:5216100:25:41 01:42:44 
161482Michael OconnorArlington VA14700:15:3215100:02:4119400:58:467800:00:4614200:25:05 01:42:49 
162376Jason LeblancWashington DC20000:16:4814200:02:3715800:57:0512600:01:0115300:25:25 01:42:53 
163656Joe WeinsteinWashington DC7900:14:1110100:02:2021200:59:40     01:43:04 
16474Edward BurgCulpeper VA20100:16:4810200:02:2015600:57:00     01:43:07 
165186Rick FayyadRockville MD26000:19:0011500:02:2716400:57:141000:00:2311300:24:17 01:43:20 
166314Austin JacobMarion OH18900:16:3310600:02:2224801:02:31     01:43:21 
167171Jay EichbergRockville MD11000:14:5015200:02:4218800:58:22     01:43:21 
168335David KarasikRockville MD20500:16:5210300:02:2015400:56:5819900:01:2816700:25:51 01:43:28 
1691Scott AckermanLansdowne VA11400:14:5527300:04:2519500:58:54     01:43:33 
17016Reuben ArneyFalls Church VA10600:14:4718200:03:0020100:59:0515200:01:0916200:25:44 01:43:44 
171227Keith GlowackiHenrico VA14100:15:2712100:02:3013600:56:0819100:01:2322000:28:19 01:43:44 
172571Aaron ShiffrinWashington DC7400:14:0629200:04:5815000:56:4118500:01:2119200:26:46 01:43:49 
173162Michael DonaldsonAlexandria VA19400:16:4324300:03:4019200:58:33     01:43:52 
174610John SullivanAlexandria VA12700:15:0925400:03:4818700:58:2020200:01:2914900:25:12 01:43:57 
175268Carlos HankeGreenbelt MD7500:14:0717000:02:5323501:01:22     01:44:09 
176354Mark KlineArlington VA21600:17:1415900:02:4617500:57:479600:00:5217400:26:05 01:44:42 
177523Mark RaifordAmissville VA6400:13:466200:02:0119800:59:0011400:00:5823000:29:03 01:44:45 
178137Mark DeaneBrandy Station VA24100:18:0218900:03:0113100:55:4219800:01:2718200:26:38 01:44:48 
179631Chad TroyerQuantico VA23900:18:0114500:02:3814500:56:35     01:44:49 
180194Charles FletcherOwings MD15700:15:4424400:03:4120200:59:069000:00:5015800:25:35 01:44:53 
181575Jody ShouseSpringfield VA23100:17:3922700:03:2812500:55:25     01:44:58 
182582Jeff SixElkridge MD5700:13:3025300:03:4721300:59:4118100:01:1918900:26:43 01:44:59 
183634Leon TurkevichAlexandria VA27400:19:524000:01:5013800:56:1614100:01:0517300:26:04 01:45:05 
184451Anthony MitchellFort Washington MD22000:17:2126600:04:0914900:56:3820900:01:3215500:25:28 01:45:06 
185165Jan DucnuigeenWashington DC29200:21:1419100:03:0311500:55:0216700:01:1412600:24:42 01:45:13 
PlaceBibNAMECITY/STATERankSWIMRankT1RankBIKERankT2RankRUNPENALTYTIMEDQ
186537Daniel RiserSeverna Park MD17700:16:1224800:03:4318500:58:18     01:45:18 
187444Richard Michelsen HolcombBowling Green VA24400:18:1220000:03:0818100:58:033800:00:3415400:25:27 01:45:22 
188156James DillonMidlothian VA28400:20:1425000:03:4512700:55:328900:00:4914000:25:05 01:45:22 
189265Jim HammerschmidtRockville MD28500:20:2417400:02:5614600:56:3720500:01:3010400:24:06 01:45:31 
190636Andrew TushArlington VA19500:16:4421500:03:2017300:57:4319500:01:2417800:26:21 01:45:31 
191426Michael McCannTowson MD19100:16:3619500:03:0515300:56:5412700:01:0121400:28:01 01:45:35 
192536Matthew RiesAlexandria VA11700:14:5824600:03:4222301:00:2812100:00:5916000:25:39 01:45:44 
193236Abel GomezWashington DC24000:18:0226000:03:5719000:58:2725900:02:178400:23:08 01:45:49 
194548John SabelhausSilver Spring MD4600:13:157800:02:0919100:58:3219400:01:2424600:30:44 01:46:03 
195505Joe PereiraFredericksburg VA27700:19:5627100:04:2010400:54:3526100:02:2113400:24:54 01:46:04 
196393Lester LiuFairfax VA20400:16:5120600:03:1418900:58:2324700:02:0515900:25:36 01:46:07 
197431Jeff McIntyreCabin John MD22400:17:2718100:02:5916800:57:24     01:46:09 
198415Sean MarshallWinchester VA19200:16:3724700:03:4218000:58:02     01:46:18 
199416James MartinWashington DC9100:14:2617600:02:5720000:59:01     01:46:19 
200502Kenneth PearceMechanicsville VA14000:15:2613700:02:3621901:00:0422000:01:4118400:26:39 01:46:25 
20185Christopher CarpenterStafford VA22500:17:306800:02:0522801:00:5022100:01:4111700:24:21 01:46:25 
202209Brad FreySterling VA15500:15:4225800:03:5411600:55:0715900:01:1224300:30:33 01:46:26 
203659Pete WendtGlen Allen VA25400:18:4513400:02:3517600:57:5525100:02:0914300:25:07 01:46:29 
204439Brad MetcalfRichmond VA17100:16:0019200:03:0320600:59:2225000:02:0817200:26:03 01:46:33 
205683Glenn YoungMattaponi VA14900:15:3711100:02:2520900:59:3213000:01:0221500:28:02 01:46:35 
206397Michael LouisWashington DC19700:16:4515600:02:4520800:59:2617900:01:1918300:26:38 01:46:51 
207469Carl NasrReston VA29100:21:1321900:03:239700:54:2419300:01:2318500:26:41 01:47:03Y
2089Rick AmernickMcLean VA13200:15:2025900:03:5421500:59:4923100:01:4918800:26:43 01:47:34 
209180David EvansFairfax VA9400:14:2816200:02:4724901:02:368300:00:4720900:27:45 01:48:22 
210613Ryan SweeneyManassas VA8500:14:1613800:02:3624501:02:158400:00:4722800:28:40 01:48:32 
211619Mark TaylorWashington DC22800:17:3629700:05:1216300:57:1425600:02:1517700:26:21 01:48:36 
212722Otis HopsonLanham MD23500:17:5015700:02:4520500:59:1417300:01:1620400:27:36 01:48:39 
213294Daniel HoefertLa Plata MD3300:12:5817300:02:5516500:57:1826200:02:2126400:33:10 01:48:41 
21493Glenn ChaseSuffolk VA20800:16:5923300:03:3221000:59:3523800:01:5113600:24:5800:02:0001:48:53 
215623Matt ThorntonWashington DC8700:14:1818700:03:0025401:03:2611900:00:5919900:27:18 01:48:59 
216512Jon PostHaymarket VA22900:17:3820100:03:0820700:59:2416200:01:1220700:27:40 01:49:00 
PlaceBibNAMECITY/STATERankSWIMRankT1RankBIKERankT2RankRUNPENALTYTIMEDQ
217290Ryan HigginsSpringfield VA11900:15:00         01:49:04 
218600James StaffordAshburn VA15100:15:3822800:03:2923101:01:0825400:02:1318700:26:43 01:49:08 
219302Mark HowellsSparks MD21200:17:099100:02:1618600:58:1822900:01:4724000:30:06 01:49:34 
220328Cavin JonesLocust Grove VA18500:16:2920300:03:1022601:00:3824300:02:0220000:27:23 01:49:40 
22169Jeremy BrowningAnnapolis MD15000:15:3826800:04:1323401:01:14     01:49:41 
222284Tyler HerbertArlington VA21300:17:1113600:02:3626401:05:058100:00:4710700:24:11 01:49:47 
223315Moises JaramilloSterling VA24500:18:1825600:03:5224101:01:3619200:01:2312700:24:44 01:49:51 
224524Neil RamsayVirginia Beach VA21500:17:1217900:02:5818300:58:0520000:01:2922600:28:2900:02:0001:50:10 
225142Jackson DehnWashington DC29700:21:5416800:02:5022201:00:2221400:01:358900:23:33 01:50:12 
226471Jason NavonReston VA16400:15:5226400:04:0719700:58:59     01:50:16 
227341David KellyAlexandria VA19900:16:4622500:03:2724001:01:31     01:50:28 
22836Justin BashamSmithfield VA16900:15:5612200:02:3122901:01:0025200:02:1023100:29:06 01:50:41 
229453Joshua MitchellQuantico VA24800:18:2721800:03:2324301:02:0723600:01:5114700:25:10 01:50:55 
230407Marchal MageeShalimar VA31100:28:357700:02:0911300:55:0216600:01:1210500:24:07 01:51:03 
231324Ellis JohnsonCarlisle PA26400:19:1718400:03:0021600:59:51     01:51:05 
232611Patrick SuperalesFort Belvoir VA27100:19:4414300:02:3719900:59:0023400:01:5021300:27:56 01:51:06 
233287James HicksChevy Chase MD24200:18:0325200:03:4524701:02:2925800:02:1712900:24:46 01:51:18 
234215Pablo GamezVienna VA17800:16:1316600:02:4922401:00:3715100:01:0924500:30:43 01:51:30 
235292Danny HobenStafford VA21900:17:1921600:03:2125001:02:4026000:02:1917100:26:02 01:51:40 
23686George CarryAlexandria VA16500:15:5323100:03:3025901:04:3610200:00:5419800:27:12 01:52:03 
237551Jordan SaltzbergRichmond VA9800:14:3322900:03:2926701:05:1517800:01:1921100:27:48 01:52:21 
23833Adam BarryWashington DC28100:20:0624900:03:4422501:00:375600:00:4020100:27:23 01:52:30 
239307Michael HuntVienna VA27800:20:0324500:03:4114100:56:2817100:01:1625200:31:08 01:52:33 
240263James HammerNewport News VA29000:20:5611900:02:2813700:56:1118700:01:2225700:32:05 01:53:00 
24198Michael ChristopherAlexandria VA30200:23:1922400:03:2621100:59:375000:00:4017000:26:01 01:53:01 
242638Jeffrey Van AttaFredericksburg VA25700:18:5520200:03:1026101:04:5219000:01:2215600:25:30 01:53:48 
243597Joseph SpencerHagaman NY19000:16:3521000:03:1628401:07:1220700:01:3015700:25:30 01:54:02 
244288Joe HigginsSpringfield VA25900:18:5931500:07:1223801:01:2921300:01:3514800:25:10 01:54:24 
245651Jeff WangColumbus OH24300:18:0425100:03:4524201:02:0625300:02:1322100:28:20 01:54:27 
246463Michael MuehlendorfManassas VA19600:16:4529500:05:0722101:00:2128200:03:5922500:28:28 01:54:37 
24723Peter BadalArlington VA22600:17:3326100:04:0023301:01:1023500:01:5122300:28:2300:02:0001:54:55 
PlaceBibNAMECITY/STATERankSWIMRankT1RankBIKERankT2RankRUNPENALTYTIMEDQ
248166Tanner DudleyWashington DC21700:17:1416000:02:4721700:59:54    00:02:0001:55:02 
249645Tim WalkawiczFalls Church VA9600:14:3031000:06:2719300:58:4426800:02:3526300:33:06 01:55:20 
250270Joseph HararArlington VA31200:29:2127600:04:286200:52:1222700:01:4620600:27:38 01:55:23 
251678Edwin Wright Jr.Montclair VA23400:17:4619900:03:0726201:04:5523200:01:4921000:27:48 01:55:23 
252201Tom FortunatoAlexandrea VA26100:19:0830000:05:3117400:57:4628800:04:3922900:28:50 01:55:52 
253395Jimmy LoHyattsville MD29600:21:4428500:04:4623601:01:2527500:03:0015100:25:17 01:56:08 
254230Pearce GodwinArlington VA28200:20:0813100:02:3426301:05:013100:00:3321800:28:10 01:56:24 
255476Corey NunezFalls Church VA30400:23:5623000:03:2913300:55:5813400:01:0325800:32:08 01:56:33 
256114Jon CooperArlington VA4700:13:1621700:03:2227101:06:1027100:02:4225300:31:08 01:56:35 
257234Dan GoldfarbBurke VA3500:13:0027500:04:2627201:06:1523900:01:5125100:31:06 01:56:36 
258333Jon JudahAlexandria VA22700:17:3322600:03:2826001:04:4321600:01:3823200:29:16 01:56:37 
259157Anthony DirenzoNorfolk MA27200:19:4519300:03:0325801:04:3322300:01:4320800:27:45 01:56:47 
2607Ari AltmanWashington DC27000:19:3729400:05:0320300:59:1024600:02:0424800:31:00 01:56:51 
261528Josh ReeceCrofton MD27600:19:5621200:03:1823001:01:0620400:01:3025000:31:04 01:56:53 
262109Michael ColeAlexandria VA22300:17:2619400:03:0326501:05:0522500:01:4323600:29:44 01:56:59 
263448Jason MillerAlexandria VA16300:15:4915000:02:4128601:07:3718300:01:2023500:29:34 01:57:00 
264598Richard SpencerFairfax VA3600:13:0126900:04:1827901:06:4624800:02:0625400:31:09 01:57:18 
265337Derek KasseWoodbridge VA16600:15:5428400:04:4428701:07:4024400:02:0219700:27:08 01:57:26 
26653Chris BlackArlington VA26500:19:2129100:04:5425701:04:1013500:01:0422200:28:21 01:57:48 
267139Shaun DeckerAmsterdam NY22200:17:2226500:04:0727301:06:1910900:00:5623700:29:47 01:58:29 
2682Christopher AldermanArlington VA9900:14:3516300:02:4830201:12:4411100:00:5720300:27:36 01:58:37 
269682Bob YoungMcLean VA26200:19:1127700:04:2821801:00:0327800:03:1525600:32:05 01:59:00 
270305Joseph HulingsBurke VA20700:16:5816500:02:4928801:07:4321000:01:3323800:30:02 01:59:03 
27111John AndersonArlington VA25200:18:4221100:03:1728901:08:0522600:01:4620500:27:37 01:59:26 
272452Eric MitchellAnnapolis MD23200:17:4030800:06:2627501:06:2727000:02:4117500:26:15 01:59:26 
27332Brian BarrettWashington DC26300:19:1319000:03:0228001:06:5115700:01:1123400:29:30 01:59:45 
274567Jeff SharpAlexandria VA25000:18:3627000:04:1928301:07:0420800:01:3221900:28:18 01:59:46 
275589Dan SmithAlexandria VA7200:14:0516900:02:5329801:10:3824000:01:5224400:30:42 02:00:08 
276514Preston PostlBowie MD27500:19:5530400:05:4025301:03:2527700:03:1421600:28:10 02:00:21 
277644Ben WaldinWashington DC29300:21:2322200:03:2527601:06:2721500:01:3720200:27:35 02:00:26 
278564Brad SenftGaithersburg MD11100:14:5224100:03:3829501:09:4316500:01:1224900:31:03 02:00:27 
PlaceBibNAMECITY/STATERankSWIMRankT1RankBIKERankT2RankRUNPENALTYTIMEDQ
27934Chad BartlettBoyds MD13700:15:2519700:03:0625101:02:529500:00:5227800:38:15 02:00:28 
28070Austin BryanMcLean VA10500:14:4722000:03:2329101:08:1224500:02:0326000:32:45 02:01:09 
281488Derek O'MaraAlexandria VA12100:15:0221300:03:1930101:11:4011000:00:5624700:30:49 02:01:44 
282435John McLeesSandston VA28600:20:2430300:05:3928201:07:0324900:02:0719000:26:44 02:01:55 
283577David SimmsArlington VA30100:23:1028000:04:3322001:00:0819600:01:2526800:33:16 02:02:30 
284510Andrew PittsArlington VA20900:17:0028800:04:4829201:08:2923700:01:5124200:30:25 02:02:31 
285188Karlo FelixFort Belvoir VA30600:24:4828200:04:3825201:03:0927600:03:1219300:26:55 02:02:40 
286540Seth RobinsonFairfax VA26900:19:3529000:04:5029401:09:1314300:01:0621700:28:10 02:02:52 
287633Andrew TulumelloAlexandria VA13900:15:2622300:03:2624401:02:0928000:03:3527900:38:24 02:02:58 
288214Michael GaffneyOakton VA26800:19:3530500:05:5327401:06:2127900:03:2821200:27:53 02:03:09 
289129Travis DavidsonNorfolk VA26600:19:2330200:05:3723201:01:1025700:02:1627500:36:20 02:04:44 
290562Myron SegalSilver Spring MD21100:17:0926300:04:0529001:08:0622800:01:4626900:34:13 02:05:17 
291220Rob GentryAlexandria VA30300:23:2628700:04:4727001:06:0724100:01:5323300:29:17 02:05:29 
292181John FacciolaWoodbridge VA2500:12:4221400:03:1931201:19:3319700:01:2622700:28:32 02:05:31 
293592Jason SmokerCollege Park MD26700:19:2627400:04:2626901:05:4718900:01:2227100:34:41 02:05:40 
29447Keith BellRichmond VA27900:20:0412900:02:3428501:07:2720100:01:2927200:34:46 02:06:17 
295484Keith OlinScaggsville MD31300:29:3423900:03:3523901:01:2924200:01:5426500:33:13 02:09:43 
296325Eric JohnsonWashington DC24600:18:2225500:03:5029301:08:4813900:01:0427700:38:09 02:10:11 
297367Chris LaneCentreville VA8200:14:1210000:02:2031401:25:1620600:01:3019400:26:55 02:10:13 
298481Timothy O'ConnellKensington MD28900:20:5031600:09:0525601:03:3513800:01:0427600:37:43 02:12:16 
299237Bill GoodingMontclair VA29500:21:3726700:04:1129601:09:5827200:02:4627300:35:18 02:13:48 
300197Jeff FoardeBethesda MD27300:19:5131400:07:0430301:13:0028600:04:3424100:30:20 02:14:48 
301642Ken WagnerBethesda MD28000:20:0530700:06:1730401:13:2526700:02:3426600:33:14 02:15:33 
302199Daniel FogartyWashington DC29400:21:3128900:04:4930801:15:3315500:01:1026700:33:15 02:16:17 
303620Richard TaylorAshburn VA29800:22:1629900:05:2327801:06:3921200:01:3428100:40:52 02:16:42 
304373Glenn LawArlington VA30500:23:5927200:04:2230601:14:1123300:01:5026100:32:46 02:17:07 
305406Dan MageeNorfolk VA28300:20:0829600:05:0825501:03:2928400:04:0928600:44:47 02:17:40 
306118Tony CovingtonWashington DC30800:26:1231200:06:2930001:11:1826500:02:2825500:31:15 02:17:41 
307347Micah KillionSpringfield VA30900:27:4528100:04:3530501:13:5521100:01:3423900:30:03 02:17:50 
308483Misha O'HanlanFalls Church VA30000:22:5727900:04:3026801:05:3826900:02:4028500:44:18 02:20:01 
30987Derek CasperWashington DC31000:28:1014100:02:3726601:05:1427400:02:5928300:41:48 02:20:47Y
PlaceBibNAMECITY/STATERankSWIMRankT1RankBIKERankT2RankRUNPENALTYTIMEDQ
310291Michael HillFairfax VA31500:32:3328300:04:4428101:07:0127300:02:5127000:34:35 02:21:42 
311107Robert CohenWoodbridgev VA31400:30:4830900:06:2724601:02:2326300:02:2228200:41:15 02:23:12 
312529Andrew RehwinkelArlington VA30700:25:3428600:04:4631101:19:0913200:01:0226200:32:47 02:23:17 
31396John ChristensenHollywood MD28800:20:3930600:06:0113400:56:0028500:04:2728800:56:58 02:24:04 
314671Dallas WolfeThe Plains VA25600:18:4931100:06:2830701:14:2528100:03:4628400:43:21 02:26:47 
315498Carl ParkerWashington DC31600:38:1220700:03:1430901:16:5625500:02:1525900:32:30 02:33:05 
316381Gottlieb LeonardTriangle VA31700:42:2623400:03:3329901:11:1513300:01:0227400:36:04 02:34:18 
31746Christopher BeemerWoodbridge VA21400:17:1130100:05:3631301:25:1026600:02:3428700:47:15 02:37:44 
318329Clark JonesReston VA          00:02:0002:51:02 
319148Michael Di MarcoWashington DC31800:46:5629800:05:1931001:18:1728300:04:0628000:40:13 02:54:49 
32095Julian ChesnuttFalls Church VA25500:18:4631300:06:5329701:10:0628700:04:36     
32194Roy CheeksFredericksburg VA31900:47:2329300:05:0127701:06:30       
322403James LydonAnnandale VA             
323648Philip WallinRichmond VA400:10:3125700:03:52         

** Results are for the private use of participants and are the Intellectual Property of Set Up Events. Unauthorized use of these results is prohibited.